createdAt,value
2022-11-29T00:01:35.222Z,110.20
2022-11-29T00:04:02.478Z,103.88
2022-11-29T00:11:48.577Z,105.10
2022-11-29T00:14:17.957Z,105.60
2022-11-29T00:16:44.745Z,106.85
2022-11-29T00:19:13.146Z,98.55
2022-11-29T00:21:39.941Z,117.18
2022-11-29T00:24:07.333Z,123.10
2022-11-29T00:26:34.111Z,112.53
2022-11-29T00:29:00.849Z,119.45
2022-11-29T00:31:30.519Z,104.72
2022-11-29T00:33:59.062Z,110.45
2022-11-29T00:36:26.581Z,130.80
2022-11-29T00:38:53.289Z,114.20
2022-11-29T00:41:20.120Z,122.28
2022-11-29T00:43:46.821Z,114.80
2022-11-29T00:46:13.593Z,139.75
2022-11-29T00:48:40.345Z,121.72
2022-11-29T00:51:07.743Z,126.68
2022-11-29T00:53:35.778Z,120.95
2022-11-29T00:56:03.857Z,115.13
2022-11-29T00:58:31.353Z,131.07
2022-11-29T01:00:58.144Z,123.38
2022-11-29T01:03:25.356Z,124.20
2022-11-29T01:08:19.292Z,116.10
2022-11-29T01:10:46.035Z,120.60
2022-11-29T01:13:13.969Z,120.80
2022-11-29T01:15:41.574Z,137.95
2022-11-29T01:18:08.372Z,118.93
2022-11-29T01:20:35.067Z,124.38
2022-11-29T01:23:01.788Z,130.45
2022-11-29T01:25:29.398Z,98.90
2022-11-29T01:27:56.120Z,120.47
2022-11-29T01:30:22.886Z,126.82
2022-11-29T01:32:49.798Z,137.77
2022-11-29T01:35:16.527Z,125.55
2022-11-29T01:37:43.223Z,119.25
2022-11-29T01:40:10.226Z,119.00
2022-11-29T01:42:36.952Z,107.97
2022-11-29T01:45:20.294Z,148.52
2022-11-29T01:47:49.499Z,144.43
2022-11-29T01:50:16.698Z,125.72
2022-11-29T01:55:12.823Z,125.47
2022-11-29T01:57:41.528Z,128.18
2022-11-29T02:00:12.242Z,116.22
2022-11-29T02:02:54.298Z,118.85
2022-11-29T02:05:22.032Z,137.45
2022-11-29T02:07:53.599Z,120.70
2022-11-29T02:10:25.908Z,129.23
2022-11-29T02:13:24.788Z,116.95
2022-11-29T02:16:05.123Z,129.77
2022-11-29T02:19:02.970Z,129.82
2022-11-29T02:21:35.890Z,134.95
2022-11-29T02:24:27.390Z,134.85
2022-11-29T02:27:32.406Z,107.75
2022-11-29T02:30:14.028Z,120.45
2022-11-29T02:33:14.424Z,141.25
2022-11-29T02:35:58.210Z,122.32
2022-11-29T02:38:59.886Z,112.72
2022-11-29T02:41:45.095Z,122.15
2022-11-29T02:44:39.265Z,123.15
2022-11-29T02:47:56.629Z,127.78
2022-11-29T02:50:34.892Z,142.73
2022-11-29T02:53:12.509Z,119.80
2022-11-29T02:55:46.549Z,124.43
2022-11-29T02:58:28.534Z,128.88
2022-11-29T03:01:07.667Z,127.30
2022-11-29T03:03:42.278Z,142.45
2022-11-29T03:06:50.413Z,139.88
2022-11-29T03:09:33.132Z,131.32
2022-11-29T03:12:19.144Z,129.20
2022-11-29T03:15:11.424Z,123.28
2022-11-29T03:17:52.102Z,129.10
2022-11-29T03:20:46.735Z,133.80
2022-11-29T03:23:36.829Z,140.70
2022-11-29T03:26:13.152Z,120.43
2022-11-29T03:28:48.688Z,114.43
2022-11-29T03:31:30.082Z,134.70
2022-11-29T03:34:26.446Z,129.35
2022-11-29T03:37:17.452Z,130.65
2022-11-29T03:39:44.114Z,117.78
2022-11-29T03:42:41.285Z,104.50
2022-11-29T03:45:17.623Z,106.22
2022-11-29T03:48:09.887Z,101.85
2022-11-29T03:50:45.364Z,98.25
2022-11-29T03:53:20.476Z,102.63
2022-11-29T03:56:01.509Z,89.68
2022-11-29T03:58:34.812Z,96.60
2022-11-29T04:01:10.377Z,88.30
2022-11-29T04:03:53.997Z,88.07
2022-11-29T04:06:39.267Z,92.40
2022-11-29T04:09:05.943Z,88.53
2022-11-29T04:11:58.853Z,88.30
2022-11-29T04:14:28.486Z,84.03
2022-11-29T04:17:32.508Z,84.50
2022-11-29T04:20:20.669Z,88.18
2022-11-29T04:22:59.410Z,88.30
2022-11-29T04:25:41.304Z,90.82
2022-11-29T04:28:52.477Z,100.13
2022-11-29T04:31:40.452Z,96.38
2022-11-29T04:34:19.248Z,88.65
2022-11-29T04:37:25.820Z,83.07
2022-11-29T04:40:13.695Z,81.38
2022-11-29T04:42:58.104Z,83.00
2022-11-29T04:45:43.180Z,86.47
2022-11-29T04:48:28.330Z,86.57
2022-11-29T04:51:23.991Z,79.57
2022-11-29T04:54:21.497Z,76.72
2022-11-29T04:57:07.405Z,86.82
2022-11-29T04:59:46.292Z,80.32
2022-11-29T05:02:34.825Z,75.72
2022-11-29T05:05:35.640Z,82.50
2022-11-29T05:08:26.739Z,78.18
2022-11-29T05:11:02.264Z,84.38
2022-11-29T05:13:58.581Z,83.47
2022-11-29T05:16:46.523Z,80.32
2022-11-29T05:19:50.709Z,78.93
2022-11-29T05:22:28.889Z,84.18
2022-11-29T05:25:10.761Z,109.13
2022-11-29T05:27:48.826Z,98.22
2022-11-29T05:30:22.221Z,77.30
2022-11-29T05:32:48.901Z,74.57
2022-11-29T05:35:54.129Z,80.85
2022-11-29T05:38:55.544Z,103.88
2022-11-29T05:41:44.330Z,74.50
2022-11-29T05:44:29.446Z,79.47
2022-11-29T05:47:02.598Z,72.82
2022-11-29T05:50:03.940Z,79.53
2022-11-29T05:52:33.611Z,73.18
2022-11-29T05:55:19.140Z,75.90
2022-11-29T05:58:06.765Z,84.70
2022-11-29T06:00:50.743Z,80.95
2022-11-29T06:03:38.584Z,77.85
2022-11-29T06:06:22.770Z,71.70
2022-11-29T06:08:59.237Z,73.57
2022-11-29T06:11:36.052Z,80.13
2022-11-29T06:14:12.512Z,72.32
2022-11-29T06:16:47.740Z,73.90
2022-11-29T06:19:49.380Z,80.00
2022-11-29T06:22:58.108Z,75.97
2022-11-29T06:25:27.735Z,78.07
2022-11-29T06:28:13.977Z,80.93
2022-11-29T06:31:00.715Z,74.20
2022-11-29T06:33:35.526Z,74.70
2022-11-29T06:36:17.725Z,75.50
2022-11-29T06:38:44.624Z,74.95
2022-11-29T06:41:22.703Z,66.15
2022-11-29T06:43:50.504Z,73.25
2022-11-29T06:46:23.504Z,81.95
2022-11-29T06:49:09.148Z,65.07
2022-11-29T06:51:57.532Z,71.57
2022-11-29T06:54:24.202Z,71.03
2022-11-29T06:57:08.801Z,73.97
2022-11-29T07:00:03.710Z,72.45
2022-11-29T07:03:03.894Z,71.55
2022-11-29T07:05:33.276Z,66.50
2022-11-29T07:08:15.727Z,66.28
2022-11-29T07:10:44.470Z,67.22
2022-11-29T07:13:13.513Z,70.88
2022-11-29T07:16:26.812Z,72.40
2022-11-29T07:19:19.041Z,70.75
2022-11-29T07:21:48.740Z,69.70
2022-11-29T07:24:25.235Z,74.10
2022-11-29T07:27:13.681Z,74.00
2022-11-29T07:32:21.276Z,66.22
2022-11-29T07:35:21.575Z,70.50
2022-11-29T07:38:27.234Z,71.32
2022-11-29T07:41:18.674Z,67.65
2022-11-29T07:43:52.072Z,64.57
2022-11-29T07:46:18.848Z,71.35
2022-11-29T07:48:46.032Z,71.60
2022-11-29T07:51:13.524Z,73.32
2022-11-29T07:53:43.621Z,59.05
2022-11-29T07:56:10.491Z,73.68
2022-11-29T07:58:37.266Z,70.03
2022-11-29T08:01:04.218Z,71.75
2022-11-29T08:03:30.976Z,62.92
2022-11-29T08:05:57.737Z,63.63
2022-11-29T08:08:24.789Z,63.17
2022-11-29T08:13:20.517Z,68.07
2022-11-29T08:15:48.167Z,61.25
2022-11-29T08:18:15.887Z,73.50
2022-11-29T08:20:43.297Z,59.17
2022-11-29T08:23:12.748Z,73.07
2022-11-29T08:25:39.983Z,64.90
2022-11-29T08:30:33.925Z,67.82
2022-11-29T08:35:27.554Z,56.65
2022-11-29T08:37:54.800Z,58.40
2022-11-29T08:42:48.280Z,60.03
2022-11-29T08:45:15.051Z,61.10
2022-11-29T08:47:42.945Z,66.82
2022-11-29T08:50:18.051Z,59.05
2022-11-29T08:53:06.065Z,61.45
2022-11-29T08:55:42.806Z,60.20
2022-11-29T08:58:12.482Z,62.63
2022-11-29T09:00:40.916Z,56.65
2022-11-29T09:03:27.186Z,64.75
2022-11-29T09:05:54.128Z,56.45
2022-11-29T09:08:21.208Z,56.88
2022-11-29T09:10:48.025Z,74.95
2022-11-29T09:13:14.928Z,60.15
2022-11-29T09:15:42.503Z,60.58
2022-11-29T09:18:09.409Z,67.07
2022-11-29T09:20:36.281Z,55.33
2022-11-29T09:23:03.327Z,62.03
2022-11-29T09:25:30.102Z,64.07
2022-11-29T09:27:59.143Z,61.13
2022-11-29T09:30:26.418Z,61.05
2022-11-29T09:32:53.176Z,47.70
2022-11-29T09:35:19.879Z,51.97
2022-11-29T09:37:46.584Z,62.08
2022-11-29T09:40:23.064Z,54.72
2022-11-29T09:43:21.869Z,56.45
2022-11-29T09:46:16.225Z,62.00
2022-11-29T09:49:21.684Z,66.70
2022-11-29T09:52:09.048Z,64.88
2022-11-29T09:54:49.437Z,72.85
2022-11-29T09:57:17.662Z,66.22
2022-11-29T09:59:49.284Z,74.72
2022-11-29T10:02:22.112Z,64.50
2022-11-29T10:05:09.316Z,62.40
2022-11-29T10:07:43.685Z,62.50
2022-11-29T10:10:29.587Z,71.78
2022-11-29T10:13:05.411Z,66.38
2022-11-29T10:15:38.772Z,76.05
2022-11-29T10:18:33.150Z,63.10
2022-11-29T10:21:06.754Z,63.88
2022-11-29T10:23:37.372Z,71.22
2022-11-29T10:26:08.066Z,64.18
2022-11-29T10:28:37.321Z,62.28
2022-11-29T10:31:18.972Z,68.35
2022-11-29T10:33:46.807Z,58.38
2022-11-29T10:36:27.020Z,61.40
2022-11-29T10:38:59.003Z,54.20
2022-11-29T10:41:26.894Z,69.22
2022-11-29T10:43:57.250Z,60.35
2022-11-29T10:46:23.948Z,60.92
2022-11-29T10:48:51.077Z,70.90
2022-11-29T10:51:18.307Z,57.15
2022-11-29T10:56:30.107Z,65.20
2022-11-29T10:58:58.491Z,62.05
2022-11-29T11:01:29.045Z,60.13
2022-11-29T11:03:57.884Z,62.95
2022-11-29T11:06:27.675Z,52.08
2022-11-29T11:09:20.661Z,50.10
2022-11-29T11:11:55.933Z,52.17
2022-11-29T11:14:26.869Z,59.58
2022-11-29T11:16:54.118Z,51.83
2022-11-29T11:21:56.520Z,52.63
2022-11-29T11:24:29.381Z,51.58
2022-11-29T11:26:56.835Z,45.95
2022-11-29T11:29:28.881Z,42.78
2022-11-29T11:31:58.441Z,45.20
2022-11-29T11:34:36.857Z,52.90
2022-11-29T11:37:15.411Z,48.03
2022-11-29T11:39:43.741Z,50.40
2022-11-29T11:42:33.075Z,48.63
2022-11-29T11:45:00.730Z,50.60
2022-11-29T11:47:30.084Z,47.35
2022-11-29T11:50:03.467Z,46.05
2022-11-29T11:52:41.281Z,53.70
2022-11-29T11:55:25.361Z,46.47
2022-11-29T11:58:17.421Z,41.95
2022-11-29T12:01:03.612Z,47.08
2022-11-29T12:03:52.761Z,49.55
2022-11-29T12:06:51.741Z,47.78
2022-11-29T12:09:32.457Z,50.97
2022-11-29T12:12:12.426Z,45.92
2022-11-29T12:14:39.652Z,47.42
2022-11-29T12:17:20.203Z,48.20
2022-11-29T12:19:58.676Z,48.10
2022-11-29T12:22:32.864Z,49.80
2022-11-29T12:25:04.611Z,49.53
2022-11-29T12:27:31.959Z,41.92
2022-11-29T12:29:58.702Z,50.33
2022-11-29T12:32:42.008Z,42.92
2022-11-29T12:35:34.948Z,43.15
2022-11-29T12:38:04.545Z,40.47
2022-11-29T12:41:01.104Z,50.13
2022-11-29T12:43:53.540Z,43.25
2022-11-29T12:46:28.684Z,45.80
2022-11-29T12:49:15.992Z,39.05
2022-11-29T12:52:12.396Z,44.40
2022-11-29T12:55:19.104Z,38.75
2022-11-29T12:58:20.077Z,44.33
2022-11-29T13:01:30.656Z,37.90
2022-11-29T13:04:21.088Z,45.55
2022-11-29T13:07:05.621Z,46.47
2022-11-29T13:09:50.945Z,43.05
2022-11-29T13:12:33.164Z,40.85
2022-11-29T13:15:20.267Z,43.55
2022-11-29T13:17:54.919Z,44.38
2022-11-29T13:20:57.953Z,42.13
2022-11-29T13:24:07.500Z,39.25
2022-11-29T13:26:27.459Z,45.55
2022-11-29T13:28:54.620Z,36.72
2022-11-29T13:34:09.447Z,40.10
2022-11-29T13:37:04.834Z,39.03
2022-11-29T13:39:46.409Z,38.38
2022-11-29T13:42:45.283Z,41.35
2022-11-29T13:45:26.958Z,41.88
2022-11-29T13:48:00.500Z,38.40
2022-11-29T13:50:44.451Z,43.42
2022-11-29T13:53:18.027Z,47.00
2022-11-29T13:56:02.938Z,44.20
2022-11-29T13:58:30.773Z,43.95
2022-11-29T14:01:14.505Z,41.42
2022-11-29T14:03:43.214Z,44.00
2022-11-29T14:06:31.446Z,42.03
2022-11-29T14:09:23.713Z,37.75
2022-11-29T14:11:56.633Z,41.17
2022-11-29T14:14:29.272Z,42.55
2022-11-29T14:17:00.438Z,44.03
2022-11-29T14:19:33.980Z,41.42
2022-11-29T14:22:06.970Z,41.22
2022-11-29T14:24:36.181Z,33.17
2022-11-29T14:27:05.935Z,43.03
2022-11-29T14:29:54.095Z,42.35
2022-11-29T14:32:45.795Z,42.35
2022-11-29T14:35:12.995Z,44.00
2022-11-29T14:38:19.310Z,46.83
2022-11-29T14:41:11.468Z,37.80
2022-11-29T14:43:41.607Z,42.97
2022-11-29T14:46:14.151Z,43.58
2022-11-29T14:48:57.478Z,45.10
2022-11-29T14:51:27.439Z,47.67
2022-11-29T14:54:13.325Z,39.92
2022-11-29T14:56:42.726Z,49.60
2022-11-29T14:59:46.740Z,40.60
2022-11-29T15:02:35.089Z,40.40
2022-11-29T15:05:17.554Z,44.70
2022-11-29T15:08:01.895Z,44.15
2022-11-29T15:10:33.535Z,50.72
2022-11-29T15:13:01.241Z,42.45
2022-11-29T15:16:02.966Z,49.08
2022-11-29T15:19:14.418Z,43.17
2022-11-29T15:21:41.107Z,39.45
2022-11-29T15:24:16.268Z,40.15
2022-11-29T15:27:00.330Z,36.75
2022-11-29T15:29:28.390Z,41.78
2022-11-29T15:31:57.894Z,44.53
2022-11-29T15:34:33.726Z,43.67
2022-11-29T15:37:01.341Z,44.50
2022-11-29T15:39:33.987Z,44.75
2022-11-29T15:42:11.863Z,42.65
2022-11-29T15:44:45.625Z,45.55
2022-11-29T15:47:22.848Z,44.00
2022-11-29T15:49:50.689Z,42.03
2022-11-29T15:52:38.390Z,42.90
2022-11-29T15:55:09.991Z,40.35
2022-11-29T15:57:43.207Z,48.22
2022-11-29T16:00:23.904Z,46.38
2022-11-29T16:02:54.117Z,47.95
2022-11-29T16:05:24.985Z,50.53
2022-11-29T16:07:55.985Z,41.67
2022-11-29T16:10:34.815Z,46.70
2022-11-29T16:13:33.964Z,53.55
2022-11-29T16:16:22.743Z,45.22
2022-11-29T16:18:50.704Z,49.67
2022-11-29T16:21:25.508Z,45.50
2022-11-29T16:23:53.381Z,40.50
2022-11-29T16:26:26.742Z,51.38
2022-11-29T16:28:57.832Z,43.42
2022-11-29T16:31:38.068Z,49.08
2022-11-29T16:34:15.814Z,48.67
2022-11-29T16:36:42.552Z,48.13
2022-11-29T16:39:25.232Z,45.13
2022-11-29T16:42:13.642Z,44.58
2022-11-29T16:47:19.845Z,50.10
2022-11-29T16:50:09.572Z,48.35
2022-11-29T16:52:36.281Z,47.70
2022-11-29T16:55:03.058Z,48.55
2022-11-29T16:57:31.275Z,53.20
2022-11-29T16:59:58.249Z,39.88
2022-11-29T17:02:29.451Z,43.55
2022-11-29T17:04:57.089Z,50.72
2022-11-29T17:07:29.702Z,49.55
2022-11-29T17:09:57.214Z,48.88
2022-11-29T17:12:24.082Z,44.05
2022-11-29T17:14:50.866Z,55.72
2022-11-29T17:17:18.764Z,49.33
2022-11-29T17:19:45.658Z,50.13
2022-11-29T17:22:12.500Z,52.85
2022-11-29T17:24:43.527Z,51.83
2022-11-29T17:27:13.191Z,62.80
2022-11-29T17:29:39.864Z,51.00
2022-11-29T17:32:06.663Z,52.28
2022-11-29T17:34:33.764Z,53.83
2022-11-29T17:37:00.543Z,55.53
2022-11-29T17:39:27.388Z,51.47
2022-11-29T17:41:54.173Z,48.17
2022-11-29T17:44:20.916Z,54.40
2022-11-29T17:46:47.597Z,52.20
2022-11-29T17:49:14.393Z,47.22
2022-11-29T17:51:57.449Z,51.33
2022-11-29T17:54:24.409Z,48.95
2022-11-29T17:56:51.242Z,39.63
2022-11-29T17:59:18.051Z,40.55
2022-11-29T18:01:47.195Z,42.22
2022-11-29T18:04:14.209Z,45.40
2022-11-29T18:06:41.488Z,43.83
2022-11-29T18:09:10.369Z,73.43
2022-11-29T18:11:47.016Z,50.22
2022-11-29T18:14:28.315Z,43.50
2022-11-29T18:16:55.293Z,47.95
2022-11-29T18:19:23.281Z,49.67
2022-11-29T18:21:50.694Z,45.80
2022-11-29T18:24:18.333Z,56.65
2022-11-29T18:26:45.408Z,48.83
2022-11-29T18:29:12.256Z,48.55
2022-11-29T18:31:42.250Z,46.92
2022-11-29T18:34:10.666Z,44.78
2022-11-29T18:36:43.325Z,47.28
2022-11-29T18:39:17.808Z,48.20
2022-11-29T18:41:49.548Z,56.63
2022-11-29T18:44:19.572Z,53.88
2022-11-29T18:46:46.503Z,57.45
2022-11-29T18:49:15.954Z,52.47
2022-11-29T18:51:44.637Z,54.80
2022-11-29T18:54:12.261Z,50.95
2022-11-29T18:56:39.357Z,59.95
2022-11-29T18:59:10.413Z,50.40
2022-11-29T19:01:41.234Z,53.00
2022-11-29T19:04:16.343Z,50.97
2022-11-29T19:06:43.488Z,52.97
2022-11-29T19:09:19.284Z,53.42
2022-11-29T19:11:46.155Z,49.67
2022-11-29T19:14:13.293Z,58.97
2022-11-29T19:19:11.573Z,49.45
2022-11-29T19:24:13.865Z,48.17
2022-11-29T19:26:44.562Z,47.33
2022-11-29T19:29:12.303Z,48.78
2022-11-29T19:31:39.480Z,47.67
2022-11-29T19:36:33.181Z,44.85
2022-11-29T19:39:01.780Z,54.55
2022-11-29T19:41:32.424Z,48.80
2022-11-29T19:44:02.214Z,50.70
2022-11-29T19:46:32.126Z,51.35
2022-11-29T19:48:59.741Z,54.28
2022-11-29T19:51:27.751Z,50.53
2022-11-29T19:53:57.556Z,50.67
2022-11-29T19:56:24.414Z,49.30
2022-11-29T19:58:51.588Z,46.70
2022-11-29T20:01:25.095Z,44.90
2022-11-29T20:03:52.957Z,53.15
2022-11-29T20:06:20.036Z,62.08
2022-11-29T20:08:47.589Z,56.00
2022-11-29T20:11:22.704Z,48.03
2022-11-29T20:13:55.173Z,47.63
2022-11-29T20:16:22.684Z,100.82
2022-11-29T20:18:51.398Z,53.55
2022-11-29T20:21:22.120Z,48.83
2022-11-29T20:23:49.504Z,75.75
2022-11-29T20:26:19.386Z,54.17
2022-11-29T20:28:47.407Z,48.35
2022-11-29T20:31:16.491Z,49.45
2022-11-29T20:33:45.864Z,51.10
2022-11-29T20:36:44.118Z,50.35
2022-11-29T20:39:29.007Z,48.90
2022-11-29T20:42:14.754Z,50.78
2022-11-29T20:44:55.161Z,45.50
2022-11-29T20:47:25.267Z,47.03
2022-11-29T20:49:53.337Z,52.90
2022-11-29T20:53:09.280Z,51.85
2022-11-29T20:55:44.884Z,49.03
2022-11-29T20:58:14.758Z,41.70
2022-11-29T21:00:41.747Z,52.83
2022-11-29T21:03:08.694Z,48.38
2022-11-29T21:05:38.196Z,52.88
2022-11-29T21:08:05.310Z,55.67
2022-11-29T21:10:32.399Z,46.90
2022-11-29T21:12:59.588Z,54.15
2022-11-29T21:15:26.751Z,52.88
2022-11-29T21:17:53.732Z,60.30
2022-11-29T21:20:25.918Z,54.60
2022-11-29T21:23:07.621Z,48.58
2022-11-29T21:25:43.251Z,46.72
2022-11-29T21:28:15.530Z,45.20
2022-11-29T21:30:43.736Z,44.80
2022-11-29T21:33:11.664Z,48.30
2022-11-29T21:35:40.025Z,48.10
2022-11-29T21:38:14.780Z,53.58
2022-11-29T21:40:41.513Z,50.47
2022-11-29T21:43:08.197Z,48.03
2022-11-29T21:45:34.941Z,51.25
2022-11-29T21:48:01.690Z,48.15
2022-11-29T21:50:28.544Z,46.40
2022-11-29T21:52:56.098Z,49.70
2022-11-29T21:55:22.867Z,46.50
2022-11-29T21:57:49.581Z,52.72
2022-11-29T22:00:16.730Z,55.30
2022-11-29T22:02:43.692Z,57.15
2022-11-29T22:05:10.563Z,50.60
2022-11-29T22:07:37.302Z,58.35
2022-11-29T22:10:11.661Z,56.35
2022-11-29T22:12:49.362Z,45.22
2022-11-29T22:15:24.151Z,61.92
2022-11-29T22:17:53.348Z,53.20
2022-11-29T22:20:20.311Z,47.33
2022-11-29T22:22:48.587Z,51.10
2022-11-29T22:25:15.905Z,45.60
2022-11-29T22:27:42.605Z,52.08
2022-11-29T22:30:09.733Z,42.50
2022-11-29T22:32:36.450Z,43.72
2022-11-29T22:35:03.182Z,40.10
2022-11-29T22:37:29.871Z,46.85
2022-11-29T22:39:56.586Z,48.92
2022-11-29T22:42:23.287Z,49.33
2022-11-29T22:44:50.024Z,46.95
2022-11-29T22:47:16.716Z,50.78
2022-11-29T22:49:44.597Z,49.75
2022-11-29T22:52:11.279Z,50.55
2022-11-29T22:54:37.986Z,45.63
2022-11-29T22:57:05.297Z,46.05
2022-11-29T22:59:32.053Z,56.10
2022-11-29T23:01:58.789Z,49.10
2022-11-29T23:04:25.500Z,47.03
2022-11-29T23:06:52.242Z,62.67
2022-11-29T23:09:22.494Z,47.30
2022-11-29T23:11:52.978Z,45.38
2022-11-29T23:14:20.607Z,49.38
2022-11-29T23:16:47.502Z,45.55
2022-11-29T23:19:16.480Z,48.28
2022-11-29T23:21:45.772Z,51.90
2022-11-29T23:24:14.253Z,51.95
2022-11-29T23:26:44.323Z,44.28
2022-11-29T23:29:14.018Z,50.88
2022-11-29T23:31:41.031Z,50.75
2022-11-29T23:34:07.917Z,49.55
2022-11-29T23:36:34.812Z,48.28
2022-11-29T23:39:04.396Z,46.50
2022-11-29T23:41:31.096Z,49.13
2022-11-29T23:43:59.671Z,45.20
2022-11-29T23:46:26.723Z,48.08
2022-11-29T23:48:53.484Z,49.70
2022-11-29T23:51:20.665Z,43.78
2022-11-29T23:53:52.043Z,43.92
2022-11-29T23:56:19.220Z,47.83
